Time;durP1;ratioP1;P1;durP2;ratioP2;P2;SDS_P1;SDS_P2;PMS_P1;PMS_P2;Temp;Humidity;BMP_temperature;BMP_pressure;BME280_temperature;BME280_humidity;BME280_pressure;Samples;Min_cycle;Max_cycle;Signal;HPM_P1;HPM_P2
2022/10/07 00:00:58;;;;;;;9.57;1.95;;;;;;;9.55;98.27;102437.19;4972095;28;20182;-48
2022/10/07 00:03:25;;;;;;;7.10;2.08;;;;;;;9.55;98.45;102438.97;4971100;28;20244;-48
2022/10/07 00:06:12;;;;;;;10.32;2.08;;;;;;;9.50;98.41;102431.00;4967999;28;20198;-51
2022/10/07 00:08:40;;;;;;;7.20;1.65;;;;;;;9.55;98.45;102421.13;4968609;28;20202;-47
2022/10/07 00:11:09;;;;;;;5.07;1.67;;;;;;;9.49;98.32;102431.91;4972260;28;20229;-46
2022/10/07 00:13:37;;;;;;;10.75;2.05;;;;;;;9.48;98.71;102422.97;4972056;28;20632;-47
2022/10/07 00:16:08;;;;;;;10.73;2.00;;;;;;;9.46;98.83;102427.44;4972260;28;20266;-47
2022/10/07 00:18:35;;;;;;;9.55;1.55;;;;;;;9.54;98.73;102426.50;4971660;28;20210;-49
2022/10/07 00:21:10;;;;;;;7.53;1.85;;;;;;;9.53;98.61;102422.03;4971209;28;20206;-46
2022/10/07 00:23:37;;;;;;;7.80;2.15;;;;;;;9.52;98.54;102422.97;4971761;28;20285;-49
2022/10/07 00:26:05;;;;;;;5.43;1.65;;;;;;;9.55;98.53;102410.41;4972074;28;20200;-49
2022/10/07 00:28:32;;;;;;;9.95;2.00;;;;;;;9.56;98.39;102412.22;4971925;28;20233;-48
2022/10/07 00:31:00;;;;;;;6.97;1.70;;;;;;;9.53;98.21;102409.53;4971853;28;20297;-45
2022/10/07 00:33:29;;;;;;;5.22;1.35;;;;;;;9.55;98.32;102396.16;4967554;28;20187;-48
2022/10/07 00:35:54;;;;;;;6.95;1.65;;;;;;;9.51;98.17;102397.09;4961437;28;20673;-49
2022/10/07 00:38:21;;;;;;;6.78;1.80;;;;;;;9.44;98.20;102397.13;4972071;28;20547;-48
2022/10/07 00:40:46;;;;;;;7.05;1.60;;;;;;;9.46;98.07;102389.97;4954302;28;20204;-47
2022/10/07 00:43:25;;;;;;;3.65;1.30;;;;;;;9.41;98.23;102391.81;4970220;28;20468;-47
2022/10/07 00:45:54;;;;;;;8.68;1.77;;;;;;;9.39;98.34;102380.25;4971949;28;20193;-50
2022/10/07 00:48:25;;;;;;;7.55;2.00;;;;;;;9.38;98.43;102372.22;4971758;28;20234;-45
2022/10/07 00:50:55;;;;;;;7.95;1.55;;;;;;;9.37;98.40;102371.34;4970581;28;20244;-47
2022/10/07 00:53:23;;;;;;;6.07;1.90;;;;;;;9.37;98.34;102371.34;4971514;28;20189;-46
2022/10/07 00:55:49;;;;;;;9.00;1.75;;;;;;;9.36;98.52;102364.22;4970494;28;20190;-51
2022/10/07 00:58:15;;;;;;;9.23;1.90;;;;;;;9.36;98.72;102360.63;4971866;28;20276;-45
2022/10/07 01:00:41;;;;;;;8.52;1.88;;;;;;;9.30;98.71;102352.69;4970875;28;20559;-51
2022/10/07 01:03:07;;;;;;;13.70;2.20;;;;;;;9.31;98.67;102360.69;4964224;28;20209;-49
2022/10/07 01:05:33;;;;;;;9.35;2.00;;;;;;;9.27;98.75;102361.59;4966916;28;20190;-45
2022/10/07 01:07:58;;;;;;;7.65;1.80;;;;;;;9.23;98.90;102352.75;4980652;28;20723;-46
2022/10/07 01:10:31;;;;;;;7.35;1.60;;;;;;;9.19;99.11;102344.75;4956835;28;20214;-45
2022/10/07 01:13:16;;;;;;;6.03;1.65;;;;;;;9.16;99.15;102358.13;4967387;28;20178;-49
2022/10/07 01:15:49;;;;;;;12.23;1.80;;;;;;;9.08;99.50;102348.41;4970005;28;20190;-45
2022/10/07 01:18:28;;;;;;;7.13;1.80;;;;;;;9.07;99.59;102337.69;4962410;28;20285;-46
2022/10/07 01:21:03;;;;;;;8.20;2.00;;;;;;;9.04;99.52;102348.44;4952281;28;20797;-47
2022/10/07 01:23:59;;;;;;;7.25;2.00;;;;;;;9.05;99.64;102345.75;4961778;28;20676;-47
2022/10/07 01:26:40;;;;;;;7.22;2.17;;;;;;;8.99;99.98;102344.91;4971384;28;20165;-44
2022/10/07 01:29:17;;;;;;;5.38;1.83;;;;;;;8.98;100.00;102335.97;4963788;28;20817;-45
2022/10/07 01:31:51;;;;;;;8.85;2.03;;;;;;;8.94;100.00;102326.22;4960067;28;20206;-44
2022/10/07 01:34:19;;;;;;;8.23;1.85;;;;;;;8.92;100.00;102333.38;4967788;28;20256;-49
2022/10/07 01:36:50;;;;;;;11.65;2.05;;;;;;;8.89;100.00;102327.16;4959599;28;20209;-50
2022/10/07 01:39:20;;;;;;;9.45;2.10;;;;;;;8.87;100.00;102322.69;4962417;28;20574;-51
2022/10/07 01:41:47;;;;;;;10.35;2.05;;;;;;;8.90;100.00;102329.84;4958701;28;20218;-50
2022/10/07 01:44:13;;;;;;;8.63;2.20;;;;;;;8.89;100.00;102313.81;4962147;28;20201;-48
2022/10/07 01:46:38;;;;;;;9.32;1.83;;;;;;;8.92;100.00;102322.69;4968278;28;20396;-50
2022/10/07 01:49:05;;;;;;;10.43;2.08;;;;;;;8.92;100.00;102316.44;4966081;28;20202;-51
2022/10/07 01:51:37;;;;;;;10.27;2.13;;;;;;;8.85;100.00;102311.16;4958399;28;20213;-50
2022/10/07 01:54:26;;;;;;;7.05;2.15;;;;;;;8.86;100.00;102310.25;4967605;28;20178;-51
2022/10/07 01:57:10;;;;;;;5.35;1.90;;;;;;;8.93;100.00;102307.53;4958744;28;20237;-52
2022/10/07 01:59:42;;;;;;;6.40;1.80;;;;;;;8.87;100.00;102303.09;4958820;28;20226;-52
2022/10/07 02:02:32;;;;;;;10.98;1.98;;;;;;;8.90;100.00;102305.78;4960180;28;20210;-49
2022/10/07 02:05:22;;;;;;;4.90;1.58;;;;;;;8.94;100.00;102293.25;4965104;28;20217;-51
2022/10/07 02:08:18;;;;;;;7.57;2.05;;;;;;;8.89;100.00;102295.97;4964406;28;20313;-46
2022/10/07 02:11:09;;;;;;;7.18;2.22;;;;;;;8.82;100.00;102289.78;4967696;28;20272;-46
2022/10/07 02:13:34;;;;;;;10.35;2.40;;;;;;;8.87;100.00;102285.28;4960835;28;20257;-47
2022/10/07 02:16:16;;;;;;;7.22;1.73;;;;;;;8.86;100.00;102288.88;4972125;28;20304;-46
2022/10/07 02:18:47;;;;;;;12.75;2.20;;;;;;;8.82;100.00;102283.56;4969944;28;20599;-44
2022/10/07 02:21:14;;;;;;;8.60;2.13;;;;;;;8.80;100.00;102272.88;4971931;28;20218;-47
2022/10/07 02:23:43;;;;;;;8.40;1.77;;;;;;;8.79;100.00;102280.88;4967575;28;20178;-47
2022/10/07 02:26:12;;;;;;;8.73;2.03;;;;;;;8.80;100.00;102269.31;4965998;28;20216;-45
2022/10/07 02:28:41;;;;;;;9.75;1.90;;;;;;;8.80;100.00;102269.31;4970833;28;20224;-49
2022/10/07 02:31:11;;;;;;;12.07;2.10;;;;;;;8.77;100.00;102264.00;4978859;28;20238;-47
2022/10/07 02:33:39;;;;;;;10.88;2.22;;;;;;;8.81;100.00;102266.66;4943127;28;20232;-47
2022/10/07 02:36:12;;;;;;;10.30;1.90;;;;;;;8.85;100.00;102267.47;4972663;28;20185;-46
2022/10/07 02:38:38;;;;;;;10.35;2.22;;;;;;;8.82;100.00;102268.41;4966343;28;20221;-48
2022/10/07 02:41:30;;;;;;;6.85;1.70;;;;;;;8.82;100.00;102265.72;4971456;28;20202;-45
2022/10/07 02:44:11;;;;;;;12.40;2.28;;;;;;;8.80;100.00;102254.16;4976950;28;20190;-48
2022/10/07 02:46:44;;;;;;;13.02;2.30;;;;;;;8.78;100.00;102271.13;4970180;28;20214;-45
2022/10/07 02:49:14;;;;;;;8.02;2.40;;;;;;;8.77;100.00;102261.34;4960104;28;20242;-47
2022/10/07 02:52:01;;;;;;;6.00;1.92;;;;;;;8.79;100.00;102262.19;4969672;28;20217;-47
2022/10/07 02:54:44;;;;;;;13.32;2.33;;;;;;;8.77;100.00;102261.34;4966900;28;20174;-47
2022/10/07 02:57:16;;;;;;;12.60;2.35;;;;;;;8.78;100.00;102249.72;4958543;28;20941;-46
2022/10/07 02:59:42;;;;;;;12.63;2.10;;;;;;;8.72;100.00;102241.75;4971337;28;20281;-47
2022/10/07 03:02:15;;;;;;;13.20;2.15;;;;;;;8.66;100.00;102243.59;4967589;28;20206;-46
2022/10/07 03:04:42;;;;;;;7.80;2.00;;;;;;;8.73;100.00;102232.88;4958790;28;20300;-45
2022/10/07 03:07:11;;;;;;;7.03;1.92;;;;;;;8.72;100.00;102233.75;4970041;28;20331;-47
2022/10/07 03:09:36;;;;;;;12.60;2.67;;;;;;;8.62;100.00;102222.25;4968324;28;20212;-46
2022/10/07 03:12:02;;;;;;;7.93;1.88;;;;;;;8.56;100.00;102230.31;4963298;28;20202;-45
2022/10/07 03:14:29;;;;;;;10.07;2.03;;;;;;;8.58;100.00;102220.50;4973112;28;20206;-46
2022/10/07 03:16:55;;;;;;;8.32;2.13;;;;;;;8.56;100.00;102230.31;4963443;28;20209;-44
2022/10/07 03:19:21;;;;;;;13.10;2.40;;;;;;;8.55;100.00;102225.84;4953641;28;20225;-44
2022/10/07 03:21:55;;;;;;;9.35;2.42;;;;;;;8.58;100.00;102221.38;4970906;28;20218;-46
2022/10/07 03:24:22;;;;;;;8.77;2.28;;;;;;;8.58;100.00;102224.06;4967277;28;20249;-46
2022/10/07 03:26:48;;;;;;;8.05;1.95;;;;;;;8.59;100.00;102222.25;4970671;28;20672;-46
2022/10/07 03:29:16;;;;;;;13.27;2.67;;;;;;;8.54;100.00;102222.31;4958087;28;20296;-46
2022/10/07 03:31:42;;;;;;;9.00;2.05;;;;;;;8.60;100.00;102216.91;4969118;28;20202;-48
2022/10/07 03:34:08;;;;;;;14.43;2.80;;;;;;;8.56;100.00;102215.16;4959896;28;20197;-46
2022/10/07 03:36:35;;;;;;;9.15;2.50;;;;;;;8.51;100.00;102208.97;4964215;28;20210;-49
2022/10/07 03:39:02;;;;;;;5.93;2.20;;;;;;;8.45;100.00;102209.03;4970139;28;20204;-45
2022/10/07 03:41:29;;;;;;;8.80;2.97;;;;;;;8.44;100.00;102218.81;4958929;28;20584;-45
2022/10/07 03:43:58;;;;;;;8.40;2.60;;;;;;;8.38;100.00;102199.25;4969381;28;20197;-46
2022/10/07 03:46:25;;;;;;;7.53;2.70;;;;;;;8.39;100.00;102198.34;4971510;28;20186;-47
2022/10/07 03:48:51;;;;;;;10.77;2.42;;;;;;;8.38;100.00;102191.25;4967139;28;20213;-46
2022/10/07 03:51:17;;;;;;;12.68;2.50;;;;;;;8.30;100.00;102188.59;4965741;28;20213;-47
2022/10/07 03:53:43;;;;;;;15.25;2.85;;;;;;;8.31;100.00;102184.16;4960298;28;20186;-48
2022/10/07 03:56:09;;;;;;;8.27;2.72;;;;;;;8.31;100.00;102176.13;4970917;28;20194;-49
2022/10/07 03:58:38;;;;;;;7.57;2.60;;;;;;;8.34;100.00;102173.47;4967186;28;20195;-47
2022/10/07 04:01:11;;;;;;;9.07;2.65;;;;;;;8.33;100.00;102182.34;4962508;28;20249;-45
2022/10/07 04:03:41;;;;;;;8.18;2.97;;;;;;;8.29;100.00;102188.59;4957152;28;20673;-44
2022/10/07 04:06:09;;;;;;;8.85;2.95;;;;;;;8.32;100.00;102183.28;4960089;28;20194;-46
2022/10/07 04:08:34;;;;;;;10.68;3.22;;;;;;;8.39;100.00;102171.63;4967990;28;20268;-45
2022/10/07 04:11:03;;;;;;;12.70;3.50;;;;;;;8.33;100.00;102177.00;4970212;28;20653;-47
2022/10/07 04:13:30;;;;;;;8.18;3.00;;;;;;;8.30;100.00;102175.25;4960303;28;20213;-45
2022/10/07 04:15:57;;;;;;;13.07;3.28;;;;;;;8.34;100.00;102173.47;4970407;28;20198;-44
2022/10/07 04:18:23;;;;;;;12.48;3.58;;;;;;;8.37;100.00;102173.44;4972113;28;20277;-44
2022/10/07 04:20:49;;;;;;;7.53;2.97;;;;;;;8.35;100.00;102176.13;4969990;28;20213;-46
2022/10/07 04:23:15;;;;;;;8.98;3.42;;;;;;;8.29;100.00;102169.91;4962143;28;20182;-46
2022/10/07 04:25:45;;;;;;;9.75;3.58;;;;;;;8.25;100.00;102177.09;4967272;28;20234;-44
2022/10/07 04:28:19;;;;;;;9.57;3.40;;;;;;;8.21;100.00;102175.34;4965473;28;20201;-46
2022/10/07 04:30:50;;;;;;;11.32;3.85;;;;;;;8.20;100.00;102176.25;4965821;28;20630;-47
2022/10/07 04:33:23;;;;;;;14.02;3.30;;;;;;;8.22;100.00;102180.66;4961684;28;20189;-46
2022/10/07 04:35:50;;;;;;;12.02;3.22;;;;;;;8.24;100.00;102173.53;4969352;28;20236;-44
2022/10/07 04:38:17;;;;;;;9.77;3.72;;;;;;;8.19;100.00;102164.66;4968819;28;20181;-45
2022/10/07 04:40:46;;;;;;;9.48;3.40;;;;;;;8.21;100.00;102170.88;4950895;28;20217;-46
2022/10/07 04:43:25;;;;;;;12.93;3.58;;;;;;;8.23;100.00;102163.72;4963006;28;20281;-45
2022/10/07 04:46:02;;;;;;;12.40;3.70;;;;;;;8.28;100.00;102171.72;4977397;28;20244;-44
2022/10/07 04:48:28;;;;;;;13.98;3.72;;;;;;;8.22;100.00;102170.00;4970317;28;20198;-46
2022/10/07 04:50:55;;;;;;;8.55;3.40;;;;;;;8.24;100.00;102151.25;4969882;28;20221;-47
2022/10/07 04:53:22;;;;;;;8.68;3.88;;;;;;;8.18;100.00;102162.00;4968730;28;20206;-46
2022/10/07 04:55:53;;;;;;;9.98;4.00;;;;;;;8.17;100.00;102154.88;4967037;28;20179;-47
2022/10/07 04:58:21;;;;;;;7.60;4.00;;;;;;;8.20;100.00;102146.88;4954632;28;20274;-46
2022/10/07 05:00:49;;;;;;;12.73;3.45;;;;;;;8.14;100.00;102149.59;4961435;28;20206;-45
2022/10/07 05:03:18;;;;;;;11.73;3.20;;;;;;;8.16;100.00;102146.00;4968379;28;20186;-45
2022/10/07 05:05:47;;;;;;;10.98;3.22;;;;;;;8.16;100.00;102148.66;4969475;28;20192;-48
2022/10/07 05:08:15;;;;;;;14.88;4.47;;;;;;;8.17;100.00;102145.09;4979780;28;20527;-48
2022/10/07 05:10:41;;;;;;;10.93;3.88;;;;;;;8.13;100.00;102145.13;4976521;28;20217;-48
2022/10/07 05:13:11;;;;;;;9.80;3.60;;;;;;;8.12;100.00;102135.34;4974774;28;20190;-46
2022/10/07 05:15:47;;;;;;;11.00;3.92;;;;;;;8.11;100.00;102137.16;4966544;28;20265;-43
2022/10/07 05:18:12;;;;;;;8.60;3.50;;;;;;;8.17;100.00;102146.88;4952017;29;20241;-45
2022/10/07 05:20:40;;;;;;;10.13;3.60;;;;;;;8.13;100.00;102135.31;4963275;28;20190;-45
2022/10/07 05:23:06;;;;;;;9.73;4.10;;;;;;;8.10;100.00;102129.13;4982049;28;20186;-44
2022/10/07 05:25:31;;;;;;;9.25;3.28;;;;;;;8.08;100.00;102137.16;4968711;28;20252;-45
2022/10/07 05:27:57;;;;;;;7.00;3.35;;;;;;;8.14;100.00;102123.75;4965952;28;20240;-47
2022/10/07 05:30:22;;;;;;;17.38;4.07;;;;;;;8.14;100.00;102129.09;4970219;28;20202;-45
2022/10/07 05:32:49;;;;;;;13.75;3.53;;;;;;;8.25;100.00;102116.56;4968701;28;20273;-44
2022/10/07 05:35:15;;;;;;;10.73;3.33;;;;;;;8.30;100.00;102135.19;4968948;28;20193;-45
2022/10/07 05:37:40;;;;;;;11.40;3.13;;;;;;;8.25;100.00;102132.56;4964182;28;20191;-45
2022/10/07 05:40:06;;;;;;;11.38;3.40;;;;;;;8.30;100.00;102126.31;4966060;28;20680;-47
2022/10/07 05:42:31;;;;;;;7.40;2.78;;;;;;;8.30;100.00;102134.31;4963060;28;20701;-46
2022/10/07 05:44:59;;;;;;;8.65;3.05;;;;;;;8.31;100.00;102137.00;4953409;28;20181;-44
2022/10/07 05:47:24;;;;;;;11.02;2.90;;;;;;;8.33;100.00;102129.84;4970920;28;20182;-46
2022/10/07 05:49:55;;;;;;;12.07;3.30;;;;;;;8.36;100.00;102127.16;4972565;28;20339;-47
2022/10/07 05:52:22;;;;;;;10.35;3.15;;;;;;;8.36;100.00;102115.59;4969908;28;20306;-44
2022/10/07 05:54:49;;;;;;;12.30;2.83;;;;;;;8.37;100.00;102122.69;4962599;28;20195;-47
2022/10/07 05:57:15;;;;;;;9.02;3.25;;;;;;;8.30;100.00;102113.84;4976211;28;20317;-46
2022/10/07 05:59:42;;;;;;;9.60;3.58;;;;;;;8.38;100.00;102125.34;4956835;28;20186;-48
2022/10/07 06:02:13;;;;;;;13.43;3.00;;;;;;;8.39;100.00;102124.44;4969136;28;20287;-45
2022/10/07 06:04:41;;;;;;;7.28;2.30;;;;;;;8.45;100.00;102126.22;4955649;28;20557;-46
2022/10/07 06:07:11;;;;;;;10.68;2.53;;;;;;;8.44;99.83;102128.00;4972882;28;20186;-47
2022/10/07 06:15:10;;;;;;;6.45;2.53;;;;;;;8.54;99.54;102120.78;4960135;28;20665;-46
2022/10/07 06:17:43;;;;;;;10.68;2.42;;;;;;;8.60;99.01;102111.84;4975444;28;20196;-45
2022/10/07 06:20:13;;;;;;;18.73;3.05;;;;;;;8.62;98.94;102110.94;4968902;28;20183;-48
2022/10/07 06:22:40;;;;;;;12.68;3.35;;;;;;;8.57;98.76;102106.50;4957306;28;20249;-46
2022/10/07 06:25:06;;;;;;;9.90;2.63;;;;;;;8.66;98.37;102118.03;4969194;28;20555;-48
2022/10/07 06:27:33;;;;;;;8.30;2.28;;;;;;;8.68;98.16;102110.00;4964266;28;20182;-46
2022/10/07 06:29:58;;;;;;;13.40;2.92;;;;;;;8.70;97.93;102113.50;4967379;28;20917;-46
2022/10/07 06:32:24;;;;;;;12.18;3.00;;;;;;;8.90;97.86;102107.06;4972122;28;20225;-45
2022/10/07 06:34:49;;;;;;;8.00;2.15;;;;;;;8.92;97.40;102114.19;4971034;28;20196;-47
2022/10/07 06:37:15;;;;;;;16.15;2.90;;;;;;;9.17;97.01;102108.56;4969664;28;20269;-45
2022/10/07 06:39:40;;;;;;;7.90;2.28;;;;;;;9.16;96.19;102107.69;4972358;28;20639;-47
2022/10/07 06:42:08;;;;;;;7.13;2.00;;;;;;;9.29;95.48;102103.06;4972515;28;20507;-45
2022/10/07 06:44:52;;;;;;;8.63;2.55;;;;;;;9.40;94.85;102110.94;4969848;28;20265;-45
2022/10/07 06:47:20;;;;;;;11.52;2.70;;;;;;;9.59;94.30;102109.81;4972245;28;20516;-47
2022/10/07 06:49:46;;;;;;;8.18;2.50;;;;;;;9.60;93.66;102106.25;4971465;28;20209;-45
2022/10/07 06:52:12;;;;;;;13.02;2.85;;;;;;;9.80;93.09;102097.03;4971939;28;20217;-49
2022/10/07 06:54:39;;;;;;;10.38;2.25;;;;;;;10.04;92.21;102101.16;4971793;28;20193;-47
2022/10/07 06:57:04;;;;;;;10.27;2.20;;;;;;;10.11;91.39;102094.78;4968264;28;20188;-46
2022/10/07 06:59:30;;;;;;;10.27;3.35;;;;;;;10.14;90.89;102096.50;4971105;28;20177;-44
2022/10/07 07:02:05;;;;;;;9.15;2.35;;;;;;;10.26;90.20;102081.13;4971811;28;20205;-46
2022/10/07 07:04:31;;;;;;;9.68;2.40;;;;;;;10.42;89.61;102086.25;4956024;28;20256;-45
2022/10/07 07:06:57;;;;;;;7.05;2.58;;;;;;;10.53;89.09;102068.19;4972002;28;20174;-46
2022/10/07 07:09:23;;;;;;;12.23;2.85;;;;;;;10.66;88.78;102083.13;4973369;28;20216;-46
2022/10/07 07:11:51;;;;;;;8.88;2.33;;;;;;;10.95;88.25;102072.78;4968628;28;20207;-45
2022/10/07 07:14:24;;;;;;;10.32;2.47;;;;;;;11.01;87.46;102076.22;4952384;29;20175;-46
2022/10/07 07:16:59;;;;;;;12.70;2.60;;;;;;;10.90;87.10;102073.75;4968262;28;20174;-45
2022/10/07 07:19:25;;;;;;;10.35;1.98;;;;;;;10.94;86.91;102087.97;4971347;28;20206;-44
2022/10/07 07:21:52;;;;;;;7.13;2.15;;;;;;;10.94;86.75;102063.84;4968258;28;20218;-47
2022/10/07 07:24:21;;;;;;;9.02;2.15;;;;;;;11.09;87.10;102076.94;4953506;28;20171;-48
2022/10/07 07:26:47;;;;;;;10.75;2.30;;;;;;;11.27;86.69;102077.47;4970851;28;20205;-47
2022/10/07 07:29:15;;;;;;;10.82;2.50;;;;;;;11.41;86.03;102064.63;4967834;28;20195;-46
2022/10/07 07:31:49;;;;;;;9.25;2.42;;;;;;;11.48;85.94;102058.25;4971328;28;20637;-47
2022/10/07 07:34:17;;;;;;;11.85;2.97;;;;;;;11.69;85.44;102062.22;4971410;28;20178;-47
2022/10/07 07:36:49;;;;;;;11.82;2.80;;;;;;;11.69;84.59;102054.16;4971565;28;20179;-47
2022/10/07 07:39:17;;;;;;;9.45;2.10;;;;;;;11.74;84.83;102048.69;4971100;28;20232;-47
2022/10/07 07:41:46;;;;;;;11.07;2.63;;;;;;;11.46;84.99;102048.47;4971367;28;20202;-46
2022/10/07 07:44:16;;;;;;;13.70;2.97;;;;;;;11.84;85.07;102044.88;4971163;28;20177;-46
2022/10/07 07:46:47;;;;;;;9.23;2.50;;;;;;;11.70;84.93;102041.66;4971253;28;20201;-46
2022/10/07 07:49:13;;;;;;;9.15;2.53;;;;;;;11.85;84.86;102035.91;4971179;28;20251;-46
2022/10/07 07:51:41;;;;;;;10.80;2.42;;;;;;;11.87;85.13;102033.16;4970802;28;20345;-47
2022/10/07 07:54:11;;;;;;;11.02;2.58;;;;;;;11.95;85.34;102041.97;4955420;28;20182;-48
2022/10/07 07:56:37;;;;;;;16.27;2.80;;;;;;;11.98;85.07;102044.56;4970709;28;20234;-46
2022/10/07 07:59:03;;;;;;;11.07;2.58;;;;;;;11.94;84.95;102027.66;4970869;28;20280;-47
2022/10/07 08:01:34;;;;;;;7.18;2.53;;;;;;;11.92;85.41;102036.69;4970878;28;20212;-46
2022/10/07 08:04:01;;;;;;;9.98;3.08;;;;;;;11.91;85.68;102043.81;4970392;28;20174;-47
2022/10/07 08:06:29;;;;;;;12.40;2.72;;;;;;;12.20;85.35;102034.19;4965912;28;20181;-45
2022/10/07 08:08:58;;;;;;;13.52;2.88;;;;;;;12.44;85.04;102032.66;4970294;28;20701;-47
2022/10/07 08:11:25;;;;;;;10.25;2.95;;;;;;;12.28;85.06;102021.41;4970697;28;20651;-47
2022/10/07 08:13:50;;;;;;;11.13;2.75;;;;;;;12.54;85.20;102020.72;4967696;28;20713;-47
2022/10/07 08:16:20;;;;;;;16.17;3.20;;;;;;;12.62;84.97;102017.81;4951366;29;20191;-49
2022/10/07 08:18:49;;;;;;;10.18;2.58;;;;;;;13.09;84.59;102020.94;4951402;29;20171;-45
2022/10/07 08:21:22;;;;;;;9.75;2.17;;;;;;;12.88;83.76;102025.16;4957552;28;20214;-46
2022/10/07 08:23:56;;;;;;;12.50;2.92;;;;;;;13.05;83.88;102007.63;4966284;28;20183;-48
2022/10/07 08:26:23;;;;;;;15.82;3.25;;;;;;;13.08;84.21;102019.19;4982270;28;20193;-47
2022/10/07 08:28:49;;;;;;;13.60;2.70;;;;;;;13.26;84.01;101998.03;4986316;28;20182;-45
2022/10/07 08:31:17;;;;;;;13.55;2.92;;;;;;;13.12;83.80;102002.03;4970301;28;20228;-46
2022/10/07 08:33:45;;;;;;;15.20;3.80;;;;;;;13.40;83.69;101995.81;4971450;28;20365;-46
2022/10/07 08:36:16;;;;;;;17.35;3.50;;;;;;;13.59;83.22;102004.19;4970060;28;20228;-46
2022/10/07 08:38:42;;;;;;;11.90;2.90;;;;;;;13.44;83.49;101994.78;4958535;28;20518;-47
2022/10/07 08:41:08;;;;;;;14.40;3.58;;;;;;;13.56;83.39;101990.84;4971418;28;20261;-46
2022/10/07 08:43:39;;;;;;;15.63;3.72;;;;;;;13.37;83.82;101980.66;4970253;28;20182;-48
2022/10/07 08:46:11;;;;;;;12.25;3.25;;;;;;;13.51;84.05;101987.41;4971383;28;20248;-47
2022/10/07 08:48:37;;;;;;;21.25;3.67;;;;;;;13.54;84.43;101995.41;4971660;28;20177;-46
2022/10/07 08:51:08;;;;;;;14.93;3.40;;;;;;;13.28;84.84;101971.97;4964708;28;20221;-46
2022/10/07 08:53:36;;;;;;;13.65;3.90;;;;;;;13.55;85.04;101972.91;4971455;28;20260;-47
2022/10/07 08:56:13;;;;;;;11.55;3.10;;;;;;;13.67;84.80;101971.66;4971335;28;20194;-46
2022/10/07 08:59:11;;;;;;;14.05;2.88;;;;;;;13.71;84.74;101959.81;4971143;28;20176;-48
2022/10/07 09:01:49;;;;;;;15.05;3.50;;;;;;;13.59;84.65;101962.00;4971606;28;20237;-44
2022/10/07 09:04:36;;;;;;;16.98;3.50;;;;;;;13.67;85.03;101952.81;4971182;28;20556;-46
2022/10/07 09:07:08;;;;;;;9.48;3.10;;;;;;;13.83;84.47;101959.44;4970162;28;20190;-47
2022/10/07 09:09:41;;;;;;;15.10;2.90;;;;;;;13.97;84.42;101954.47;4971083;28;20210;-46
2022/10/07 09:12:15;;;;;;;13.38;3.00;;;;;;;13.90;84.21;101949.31;4971283;28;20697;-45
2022/10/07 09:14:45;;;;;;;12.90;3.25;;;;;;;14.13;84.53;101940.44;4957147;28;20213;-46
2022/10/07 09:17:27;;;;;;;12.70;2.97;;;;;;;14.03;84.15;101926.41;4960588;28;20214;-47
2022/10/07 09:20:01;;;;;;;9.73;3.30;;;;;;;14.01;84.39;101930.97;4969385;28;20598;-46
2022/10/07 09:22:33;;;;;;;17.05;3.13;;;;;;;14.18;84.60;101928.56;4967933;28;20630;-47
2022/10/07 09:25:11;;;;;;;13.25;3.22;;;;;;;14.11;84.32;101923.44;4975367;28;20190;-47
2022/10/07 09:27:37;;;;;;;12.40;3.25;;;;;;;14.09;84.34;101925.31;4975013;28;20186;-48
2022/10/07 09:30:04;;;;;;;11.77;2.92;;;;;;;14.16;84.65;101932.25;4975124;28;20283;-47
2022/10/07 09:32:30;;;;;;;13.63;2.80;;;;;;;14.15;84.33;101923.28;4974940;28;20807;-45
2022/10/07 09:34:56;;;;;;;13.48;3.58;;;;;;;14.21;84.63;101924.88;4975314;28;20181;-47
2022/10/07 09:37:26;;;;;;;13.65;3.30;;;;;;;14.45;84.34;101919.53;4966002;28;20190;-45
2022/10/07 09:39:56;;;;;;;15.60;3.97;;;;;;;14.69;83.72;101915.94;4973502;28;20837;-47
2022/10/07 09:42:28;;;;;;;13.95;3.38;;;;;;;14.53;83.69;101914.72;4975072;28;20708;-47
2022/10/07 09:44:56;;;;;;;11.27;2.80;;;;;;;14.47;83.59;101914.94;4974241;28;20186;-46
2022/10/07 09:47:29;;;;;;;13.82;3.55;;;;;;;14.35;83.80;101908.22;4957899;28;20174;-48
2022/10/07 09:49:58;;;;;;;13.50;3.78;;;;;;;14.57;83.48;101916.41;4951334;29;20789;-46
2022/10/07 09:52:28;;;;;;;13.45;3.20;;;;;;;14.45;83.14;101906.91;4955298;28;20199;-48
2022/10/07 09:54:56;;;;;;;15.15;3.40;;;;;;;14.39;83.20;101907.16;4971123;28;20182;-46
2022/10/07 09:57:24;;;;;;;12.88;3.00;;;;;;;14.86;82.85;101901.78;4974527;28;20181;-47
2022/10/07 09:59:50;;;;;;;13.85;3.13;;;;;;;14.59;82.87;101901.06;4966474;28;20194;-45
2022/10/07 10:02:24;;;;;;;14.35;3.00;;;;;;;14.80;83.21;101892.13;4953821;28;20206;-44
2022/10/07 10:04:53;;;;;;;14.50;3.67;;;;;;;14.98;82.83;101887.84;4966573;28;20185;-48
2022/10/07 10:07:20;;;;;;;14.57;3.35;;;;;;;14.91;82.15;101889.03;4974470;28;20665;-45
2022/10/07 10:09:51;;;;;;;14.45;3.22;;;;;;;14.83;82.51;101892.00;4974093;28;20304;-47
2022/10/07 10:12:18;;;;;;;13.10;3.20;;;;;;;14.84;82.47;101882.09;4963353;28;20194;-48
2022/10/07 10:14:57;;;;;;;11.73;3.20;;;;;;;14.81;82.55;101898.41;4974081;28;20201;-48
2022/10/07 10:17:27;;;;;;;11.05;3.08;;;;;;;14.89;82.85;101884.59;4974120;28;20190;-48
2022/10/07 10:19:54;;;;;;;13.68;3.53;;;;;;;15.13;82.64;101871.94;4974306;28;20182;-47
2022/10/07 10:22:28;;;;;;;13.70;3.60;;;;;;;15.12;82.03;101876.47;4973884;28;20200;-45
2022/10/07 10:28:01;;;;;;;14.15;3.65;;;;;;;15.11;82.24;101869.34;4973823;28;20194;-47
2022/10/07 10:30:29;;;;;;;13.68;2.83;;;;;;;15.21;82.14;101868.00;4972524;28;20258;-48
2022/10/07 10:33:23;;;;;;;13.02;3.15;;;;;;;15.40;82.20;101868.13;4973146;28;20725;-46
2022/10/07 10:36:04;;;;;;;11.15;2.53;;;;;;;15.43;82.11;101859.00;4954830;29;20178;-47
2022/10/07 10:38:45;;;;;;;11.68;2.70;;;;;;;15.59;81.65;101852.03;4963885;28;20359;-48
2022/10/07 10:41:37;;;;;;;9.25;2.83;;;;;;;15.33;80.86;101839.63;4968140;28;20206;-48
2022/10/07 10:44:21;;;;;;;12.93;2.75;;;;;;;15.51;80.76;101839.78;4954540;28;20686;-47
2022/10/07 10:47:07;;;;;;;13.60;3.38;;;;;;;15.51;80.53;101835.25;4958444;28;20620;-49
2022/10/07 10:49:44;;;;;;;14.35;2.45;;;;;;;15.66;80.20;101842.69;4970121;28;20206;-50
2022/10/07 10:52:43;;;;;;;13.73;2.55;;;;;;;15.70;80.42;101835.34;4967636;28;20210;-47
2022/10/07 10:55:32;;;;;;;16.33;3.25;;;;;;;15.82;79.88;101842.06;4918430;28;20210;-47
2022/10/07 10:58:08;;;;;;;12.40;2.80;;;;;;;16.04;79.28;101823.94;4963691;28;20253;-49
2022/10/07 11:01:01;;;;;;;10.32;2.78;;;;;;;16.01;78.48;101824.09;4963742;28;20185;-48
2022/10/07 11:03:50;;;;;;;13.73;2.75;;;;;;;15.83;78.41;101828.50;4968210;28;20186;-48
2022/10/07 11:06:18;;;;;;;15.65;2.92;;;;;;;15.76;78.71;101826.13;4969262;28;20182;-48
2022/10/07 11:08:46;;;;;;;8.70;2.47;;;;;;;16.05;78.69;101825.69;4970309;28;20196;-47
2022/10/07 11:11:16;;;;;;;8.80;2.67;;;;;;;16.11;78.52;101815.53;4965718;28;20599;-49
2022/10/07 11:13:59;;;;;;;11.88;2.80;;;;;;;15.84;78.32;101816.72;4963826;28;20601;-47
2022/10/07 11:16:31;;;;;;;14.05;2.75;;;;;;;15.63;79.33;101812.22;4968752;28;20181;-49
2022/10/07 11:19:08;;;;;;;12.85;2.67;;;;;;;15.92;79.39;101805.59;4969312;28;20186;-50
2022/10/07 11:21:38;;;;;;;10.63;2.63;;;;;;;15.98;78.97;101796.31;4969132;28;20647;-49
2022/10/07 11:24:14;;;;;;;13.40;2.90;;;;;;;15.93;78.89;101796.50;4972348;28;20202;-47
2022/10/07 11:26:52;;;;;;;14.65;2.80;;;;;;;15.71;78.67;101790.28;4966029;28;20842;-47
2022/10/07 11:29:36;;;;;;;11.38;2.40;;;;;;;15.94;79.31;101787.47;4964090;28;20206;-48
2022/10/07 11:32:09;;;;;;;14.52;2.67;;;;;;;16.16;79.04;101781.97;4967801;28;20245;-47
2022/10/07 11:34:58;;;;;;;10.85;2.40;;;;;;;16.46;78.52;101768.81;4966469;28;20273;-49
2022/10/07 11:37:36;;;;;;;8.63;2.72;;;;;;;16.08;78.21;101769.75;4958560;28;20697;-47
2022/10/07 11:40:06;;;;;;;8.63;2.50;;;;;;;15.96;78.36;101781.97;4968822;28;20202;-47
2022/10/07 11:42:41;;;;;;;15.13;3.25;;;;;;;15.83;78.77;101773.53;4968227;28;20210;-50
2022/10/07 11:45:10;;;;;;;13.43;3.17;;;;;;;15.62;78.90;101775.38;4964486;28;20261;-49
2022/10/07 11:47:41;;;;;;;10.98;2.58;;;;;;;15.81;78.82;101767.34;4963639;28;20575;-48